メルボルン の空港の天気 - METARとTAF

メルボルン空港 ( YMML / MEL ) - オーストラリア ビクトリア州、Melbourne Airport
飛行場実況気象(Metar)
観測時間02/01 20:30 AEDT (02/01 09:30 UTC)
風向・風速南 4m/s
視程10km以上
天気現象
少しの雲 雲底高度 1460m
全天の8割程度の雲 雲底高度 1830m
気温16℃
湿度63%
気圧1005hPa
METARYMML 010930Z 18008KT 9999 FEW048 BKN060 16/09 Q1005 RF00.0/000.0
過去の天気等 Google飛行場航空写真 Wunderground天気予報

過去48時間のMETAR

飛行場予報(TAF)
発表時間: 2/01 19:24 AEDT (2/01 08:24 UTC)
予報対象時間: 1日20時 AEDT ~ 2日23時 AEDT
風向・風速南 5m/s
視程10km以上
全天の4割程度の雲 雲底高度 1070m
全天の8割程度の雲 雲底高度 1370m
2日0時 AEDT から
風向・風速西北西 3m/s
視程10km以上
全天の8割程度の雲 雲底高度 1370m
2日12時 AEDT から
風向・風速西北西 10m/s 瞬間風速 18m/s
視程10km以上
なし
2日17時 AEDT から
風向・風速西北西 7m/s
視程10km以上
天気現象弱いしゅう雨
全天の4割程度の雲 雲底高度 760m
全天の8割程度の雲 雲底高度 1520m
2日19時 AEDT から
風向・風速西 6m/s
視程10km以上
天気現象運行に影響にある天気現象が終了
少しの雲 雲底高度 760m
TAF YMML 010824Z 0109/0212 18010KT 9999 SCT035 BKN045
FM011300 30006KT 9999 BKN045
FM020100 30020G35KT CAVOK
FM020600 29014KT 9999 -SHRA SCT025 BKN050
FM020800 27012KT 9999 NSW FEW025 INTER 0206/0209 28020G35KT 4000 SHRA SCT015